createdAt,value
2019-02-28T00:06:29.642Z,19.23
2019-02-28T00:08:58.728Z,17.37
2019-02-28T00:11:27.713Z,14.03
2019-02-28T00:13:57.218Z,16.50
2019-02-28T00:16:26.262Z,22.73
2019-02-28T00:18:55.170Z,19.23
2019-02-28T00:21:24.262Z,17.50
2019-02-28T00:23:56.434Z,16.77
2019-02-28T00:26:23.979Z,13.63
2019-02-28T00:28:53.631Z,14.37
2019-02-28T00:31:22.702Z,12.87
2019-02-28T00:33:51.931Z,15.23
2019-02-28T00:36:20.923Z,11.23
2019-02-28T00:38:49.966Z,13.50
2019-02-28T00:41:18.958Z,13.67
2019-02-28T00:43:48.210Z,11.87
2019-02-28T00:46:17.257Z,12.93
2019-02-28T00:48:46.691Z,12.43
2019-02-28T00:51:16.395Z,9.07
2019-02-28T00:53:45.445Z,12.07
2019-02-28T00:56:17.585Z,14.03
2019-02-28T00:58:45.522Z,11.77
2019-02-28T01:01:14.491Z,14.47
2019-02-28T01:03:43.536Z,11.13
2019-02-28T01:06:12.795Z,12.00
2019-02-28T01:08:42.750Z,14.27
2019-02-28T01:11:13.249Z,13.03
2019-02-28T01:13:42.873Z,11.93
2019-02-28T01:16:11.941Z,12.63
2019-02-28T01:18:40.922Z,11.77
2019-02-28T01:21:09.984Z,9.97
2019-02-28T01:23:39.166Z,11.50
2019-02-28T01:26:08.212Z,12.23
2019-02-28T01:28:37.979Z,13.77
2019-02-28T01:31:06.838Z,12.13
2019-02-28T01:33:37.665Z,13.07
2019-02-28T01:36:07.299Z,12.23
2019-02-28T01:38:36.280Z,12.43
2019-02-28T01:41:05.309Z,9.73
2019-02-28T01:43:34.243Z,12.50
2019-02-28T01:46:03.111Z,10.60
2019-02-28T01:48:32.159Z,10.80
2019-02-28T01:51:01.688Z,13.87
2019-02-28T01:53:31.087Z,12.23
2019-02-28T01:56:02.399Z,11.33
2019-02-28T01:58:30.899Z,9.70
2019-02-28T02:00:59.736Z,14.73
2019-02-28T02:03:28.734Z,11.93
2019-02-28T02:05:57.936Z,11.30
2019-02-28T02:08:27.392Z,11.67
2019-02-28T02:10:56.777Z,10.77
2019-02-28T02:13:26.566Z,11.00
2019-02-28T02:15:55.649Z,9.67
2019-02-28T02:18:24.754Z,13.30
2019-02-28T02:20:53.818Z,12.80
2019-02-28T02:23:22.794Z,12.47
2019-02-28T02:25:51.838Z,10.77
2019-02-28T02:28:21.324Z,11.67
2019-02-28T02:30:51.956Z,10.43
2019-02-28T02:33:21.190Z,11.10
2019-02-28T02:35:50.337Z,12.33
2019-02-28T02:38:19.404Z,13.77
2019-02-28T02:40:48.474Z,11.90
2019-02-28T02:43:21.945Z,11.40
2019-02-28T02:45:48.357Z,14.67
2019-02-28T02:48:17.419Z,10.53
2019-02-28T02:50:46.854Z,12.83
2019-02-28T02:53:15.826Z,13.50
2019-02-28T02:55:44.871Z,10.83
2019-02-28T02:58:13.971Z,9.57
2019-02-28T03:00:49.289Z,10.80
2019-02-28T03:03:13.850Z,12.17
2019-02-28T03:05:43.571Z,10.63
2019-02-28T03:08:12.770Z,10.77
2019-02-28T03:10:42.200Z,12.73
2019-02-28T03:13:11.777Z,10.33
2019-02-28T03:15:40.760Z,12.50
2019-02-28T03:18:09.807Z,10.73
2019-02-28T03:20:41.315Z,14.13
2019-02-28T03:23:10.465Z,12.10
2019-02-28T03:25:39.523Z,11.97
2019-02-28T03:28:08.559Z,10.60
2019-02-28T03:30:37.524Z,11.47
2019-02-28T03:33:06.603Z,11.53
2019-02-28T03:35:43.259Z,13.57
2019-02-28T03:38:11.635Z,10.37
2019-02-28T03:40:40.168Z,15.87
2019-02-28T03:43:09.070Z,10.07
2019-02-28T03:45:38.120Z,11.73
2019-02-28T03:48:07.109Z,11.93
2019-02-28T03:50:36.531Z,13.10
2019-02-28T03:53:05.618Z,12.80
2019-02-28T03:55:39.876Z,15.97
2019-02-28T03:58:05.841Z,15.20
2019-02-28T04:00:35.229Z,14.00
2019-02-28T04:03:04.313Z,13.67
2019-02-28T04:05:33.823Z,11.90
2019-02-28T04:08:03.224Z,14.27
2019-02-28T04:10:33.356Z,13.37
2019-02-28T04:13:02.375Z,14.53
2019-02-28T04:15:31.424Z,15.60
2019-02-28T04:18:06.613Z,11.90
2019-02-28T04:20:35.946Z,16.43
2019-02-28T04:23:02.470Z,13.80
2019-02-28T04:25:31.560Z,14.67
2019-02-28T04:28:00.667Z,14.97
2019-02-28T04:30:33.324Z,15.80
2019-02-28T04:33:02.575Z,15.80
2019-02-28T04:35:31.799Z,18.20
2019-02-28T04:38:00.878Z,15.27
2019-02-28T04:40:30.163Z,17.03
2019-02-28T04:42:59.459Z,12.87
2019-02-28T04:45:28.441Z,15.77
2019-02-28T04:47:57.472Z,17.67
2019-02-28T04:50:31.221Z,14.77
2019-02-28T04:52:57.811Z,15.40
2019-02-28T04:55:26.802Z,16.37
2019-02-28T04:57:55.883Z,20.73
2019-02-28T05:00:24.940Z,16.23
2019-02-28T05:02:54.998Z,15.43
2019-02-28T05:05:24.997Z,13.90
2019-02-28T05:07:54.149Z,14.37
2019-02-28T05:10:23.602Z,15.80
2019-02-28T05:12:52.894Z,16.37
2019-02-28T05:15:21.950Z,17.63
2019-02-28T05:17:53.052Z,14.40
2019-02-28T05:20:22.009Z,14.37
2019-02-28T05:22:50.981Z,15.70
2019-02-28T05:25:20.023Z,15.20
2019-02-28T05:27:49.083Z,13.10
2019-02-28T05:30:19.626Z,14.53
2019-02-28T05:32:48.726Z,17.83
2019-02-28T05:35:17.630Z,15.13
2019-02-28T05:37:48.303Z,16.83
2019-02-28T05:40:17.650Z,12.87
2019-02-28T05:42:46.934Z,16.20
2019-02-28T05:45:15.998Z,15.30
2019-02-28T05:47:47.220Z,14.00
2019-02-28T05:50:17.439Z,12.80
2019-02-28T05:52:46.920Z,14.80
2019-02-28T05:55:16.009Z,14.17
2019-02-28T05:57:45.092Z,15.43
2019-02-28T06:00:15.409Z,16.27
2019-02-28T06:02:44.391Z,14.80
2019-02-28T06:05:13.701Z,13.83
2019-02-28T06:07:43.458Z,11.97
2019-02-28T06:10:13.186Z,12.90
2019-02-28T06:12:43.687Z,15.97
2019-02-28T06:15:13.018Z,17.80
2019-02-28T06:17:42.582Z,16.97
2019-02-28T06:20:11.587Z,15.17
2019-02-28T06:22:40.563Z,13.33
2019-02-28T06:25:09.712Z,13.17
2019-02-28T06:27:41.765Z,15.03
2019-02-28T06:30:10.807Z,14.43
2019-02-28T06:32:39.886Z,15.43
2019-02-28T06:35:08.945Z,16.03
2019-02-28T06:37:38.372Z,16.23
2019-02-28T06:40:11.730Z,15.07
2019-02-28T06:42:43.455Z,16.10
2019-02-28T06:45:13.350Z,15.97
2019-02-28T06:47:48.179Z,14.07
2019-02-28T06:50:14.398Z,13.23
2019-02-28T06:52:43.375Z,18.20
2019-02-28T06:55:15.877Z,14.57
2019-02-28T06:57:44.902Z,12.23
2019-02-28T07:00:14.272Z,12.20
2019-02-28T07:02:44.159Z,12.47
2019-02-28T07:05:13.222Z,13.70
2019-02-28T07:07:45.826Z,13.43
2019-02-28T07:10:13.419Z,16.03
2019-02-28T07:12:43.019Z,15.53
2019-02-28T07:15:12.029Z,14.80
2019-02-28T07:17:42.613Z,14.33
2019-02-28T07:20:13.354Z,13.00
2019-02-28T07:22:42.420Z,14.20
2019-02-28T07:25:12.777Z,15.53
2019-02-28T07:27:42.410Z,14.03
2019-02-28T07:30:18.732Z,17.50
2019-02-28T07:32:45.690Z,13.27
2019-02-28T07:35:14.745Z,13.67
2019-02-28T07:37:43.794Z,11.00
2019-02-28T07:40:16.160Z,14.20
2019-02-28T07:42:44.018Z,11.40
2019-02-28T07:45:13.312Z,14.67
2019-02-28T07:47:42.915Z,15.07
2019-02-28T07:50:12.027Z,12.40
2019-02-28T07:52:41.082Z,15.50
2019-02-28T07:55:10.834Z,15.33
2019-02-28T07:57:39.852Z,14.13
2019-02-28T08:00:17.188Z,14.67
2019-02-28T08:02:44.214Z,16.77
2019-02-28T08:05:13.675Z,14.70
2019-02-28T08:07:42.733Z,18.60
2019-02-28T08:10:15.973Z,16.37
2019-02-28T08:12:44.544Z,14.73
2019-02-28T08:15:21.105Z,14.77
2019-02-28T08:17:47.823Z,18.47
2019-02-28T08:20:16.875Z,27.20
2019-02-28T08:22:45.936Z,26.37
2019-02-28T08:25:15.006Z,28.33
2019-02-28T08:27:44.106Z,26.33
2019-02-28T08:30:16.233Z,28.30
2019-02-28T08:32:47.094Z,23.60
2019-02-28T08:35:16.399Z,27.43
2019-02-28T08:37:45.458Z,23.13
2019-02-28T08:40:17.553Z,26.53
2019-02-28T08:42:46.598Z,24.10
2019-02-28T08:45:15.638Z,25.27
2019-02-28T08:47:45.312Z,23.10
2019-02-28T08:50:20.606Z,32.73
2019-02-28T08:52:49.391Z,33.97
2019-02-28T08:55:27.883Z,29.10
2019-02-28T08:57:55.632Z,32.83
2019-02-28T09:00:20.851Z,26.43
2019-02-28T09:02:52.893Z,27.23
2019-02-28T09:05:25.529Z,24.03
2019-02-28T09:07:52.027Z,26.13
2019-02-28T09:10:21.830Z,24.37
2019-02-28T09:12:51.358Z,23.13
2019-02-28T09:15:20.841Z,23.43
2019-02-28T09:17:49.911Z,23.23
2019-02-28T09:20:19.049Z,28.23
2019-02-28T09:22:48.558Z,25.63
2019-02-28T09:25:21.136Z,23.30
2019-02-28T09:27:48.871Z,22.13
2019-02-28T09:30:30.678Z,21.57
2019-02-28T09:33:00.005Z,24.87
2019-02-28T09:35:29.060Z,23.63
2019-02-28T09:38:00.161Z,22.50
2019-02-28T09:40:29.448Z,23.47
2019-02-28T09:42:59.658Z,24.27
2019-02-28T09:45:30.156Z,21.73
2019-02-28T09:48:01.863Z,25.13
2019-02-28T09:50:30.022Z,20.93
2019-02-28T09:52:59.375Z,22.47
2019-02-28T09:55:34.274Z,23.53
2019-02-28T09:57:59.311Z,18.93
2019-02-28T10:00:29.406Z,24.87
2019-02-28T10:02:58.629Z,20.77
2019-02-28T10:05:27.723Z,20.13
2019-02-28T10:08:01.489Z,21.30
2019-02-28T10:10:28.159Z,20.47
2019-02-28T10:12:58.014Z,21.77
2019-02-28T10:15:27.575Z,22.00
2019-02-28T10:17:56.630Z,19.83
2019-02-28T10:20:28.241Z,20.10
2019-02-28T10:22:57.946Z,20.10
2019-02-28T10:25:27.022Z,22.57
2019-02-28T10:28:01.163Z,17.00
2019-02-28T10:30:31.600Z,20.07
2019-02-28T10:32:57.494Z,17.57
2019-02-28T10:35:26.639Z,21.93
2019-02-28T10:37:58.390Z,22.63
2019-02-28T10:40:26.559Z,20.00
2019-02-28T10:42:55.683Z,21.83
2019-02-28T10:45:26.548Z,18.17
2019-02-28T10:47:55.530Z,19.30
2019-02-28T10:50:25.928Z,18.23
2019-02-28T10:52:55.670Z,19.73
2019-02-28T10:55:24.650Z,21.63
2019-02-28T10:57:53.707Z,19.80
2019-02-28T11:00:32.746Z,20.67
2019-02-28T11:03:02.179Z,17.57
2019-02-28T11:05:32.286Z,20.40
2019-02-28T11:08:02.276Z,21.53
2019-02-28T11:10:38.798Z,18.63
2019-02-28T11:13:11.614Z,23.53
2019-02-28T11:15:41.658Z,20.30
2019-02-28T11:18:10.886Z,20.60
2019-02-28T11:20:40.638Z,23.67
2019-02-28T11:23:14.339Z,23.17
2019-02-28T11:25:40.513Z,20.57
2019-02-28T11:28:09.571Z,23.37
2019-02-28T11:30:43.970Z,24.17
2019-02-28T11:33:09.327Z,24.00
2019-02-28T11:35:38.406Z,19.77
2019-02-28T11:38:07.614Z,22.07
2019-02-28T11:40:36.960Z,24.73
2019-02-28T11:43:06.523Z,22.07
2019-02-28T11:45:36.159Z,23.80
2019-02-28T11:48:06.067Z,20.17
2019-02-28T11:50:35.225Z,26.97
2019-02-28T11:53:05.880Z,19.23
2019-02-28T11:55:34.974Z,20.37
2019-02-28T11:58:04.220Z,20.47
2019-02-28T12:00:35.678Z,21.00
2019-02-28T12:03:05.587Z,21.87
2019-02-28T12:05:35.450Z,21.27
2019-02-28T12:08:09.076Z,20.20
2019-02-28T12:10:35.186Z,35.17
2019-02-28T12:13:04.582Z,54.30
2019-02-28T12:15:38.089Z,55.43
2019-02-28T12:18:05.388Z,60.80
2019-02-28T12:20:35.555Z,69.20
2019-02-28T12:23:04.701Z,55.77
2019-02-28T12:25:33.760Z,61.93
2019-02-28T12:28:06.333Z,65.73
2019-02-28T12:30:33.670Z,62.30
2019-02-28T12:33:02.759Z,58.07
2019-02-28T12:35:37.295Z,60.83
2019-02-28T12:38:03.139Z,49.23
2019-02-28T12:40:32.234Z,50.93
2019-02-28T12:43:01.354Z,48.17
2019-02-28T12:45:33.052Z,45.13
2019-02-28T12:48:02.122Z,46.63
2019-02-28T12:50:31.747Z,36.07
2019-02-28T12:53:00.835Z,37.37
2019-02-28T12:55:30.003Z,34.53
2019-02-28T12:57:59.190Z,38.73
2019-02-28T13:00:32.874Z,32.80
2019-02-28T13:03:02.537Z,31.40
2019-02-28T13:05:31.715Z,31.47
2019-02-28T13:08:00.703Z,28.00
2019-02-28T13:10:31.228Z,29.53
2019-02-28T13:13:06.394Z,28.13
2019-02-28T13:15:32.170Z,27.87
2019-02-28T13:18:07.128Z,27.57
2019-02-28T13:20:33.520Z,28.67
2019-02-28T13:23:03.090Z,30.33
2019-02-28T13:25:32.122Z,25.10
2019-02-28T13:28:01.376Z,26.40
2019-02-28T13:30:30.595Z,25.73
2019-02-28T13:32:59.717Z,24.80
2019-02-28T13:35:30.594Z,25.50
2019-02-28T13:37:59.656Z,30.13
2019-02-28T13:40:28.634Z,23.40
2019-02-28T13:42:58.393Z,24.53
2019-02-28T13:45:27.482Z,23.40
2019-02-28T13:47:56.550Z,25.20
2019-02-28T13:50:27.213Z,22.73
2019-02-28T13:52:56.273Z,23.90
2019-02-28T13:55:25.365Z,25.20
2019-02-28T13:57:54.399Z,21.57
2019-02-28T14:00:25.175Z,24.03
2019-02-28T14:02:56.286Z,20.87
2019-02-28T14:05:26.494Z,23.30
2019-02-28T14:07:55.555Z,23.97
2019-02-28T14:10:24.736Z,24.23
2019-02-28T14:12:57.947Z,23.60
2019-02-28T14:15:30.635Z,20.57
2019-02-28T14:18:00.262Z,24.73
2019-02-28T14:20:29.330Z,19.10
2019-02-28T14:22:59.770Z,20.63
2019-02-28T14:25:28.822Z,21.10
2019-02-28T14:28:00.191Z,21.77
2019-02-28T14:30:29.235Z,23.13
2019-02-28T14:32:59.124Z,22.57
2019-02-28T14:35:33.930Z,20.77
2019-02-28T14:37:59.223Z,21.73
2019-02-28T14:40:28.299Z,20.43
2019-02-28T14:42:57.298Z,20.03
2019-02-28T14:45:26.658Z,17.03
2019-02-28T14:47:57.353Z,19.33
2019-02-28T14:50:26.609Z,18.47
2019-02-28T14:52:57.006Z,16.60
2019-02-28T14:55:26.123Z,18.77
2019-02-28T14:57:55.306Z,18.60
2019-02-28T15:00:28.494Z,15.70
2019-02-28T15:02:59.501Z,18.03
2019-02-28T15:05:29.713Z,14.93
2019-02-28T15:07:58.866Z,15.73
2019-02-28T15:10:28.325Z,15.93
2019-02-28T15:12:59.762Z,17.47
2019-02-28T15:15:29.210Z,13.73
2019-02-28T15:17:59.413Z,17.40
2019-02-28T15:20:31.582Z,12.13
2019-02-28T15:22:59.593Z,15.50
2019-02-28T15:25:29.362Z,17.40
2019-02-28T15:27:58.412Z,17.33
2019-02-28T15:30:30.432Z,14.37
2019-02-28T15:32:59.982Z,12.50
2019-02-28T15:35:29.011Z,16.20
2019-02-28T15:37:58.056Z,14.23
2019-02-28T15:40:32.655Z,12.03
2019-02-28T15:43:01.640Z,15.13
2019-02-28T15:45:30.695Z,12.13
2019-02-28T15:48:00.454Z,16.93
2019-02-28T15:50:29.786Z,13.20
2019-02-28T15:52:59.260Z,13.87
2019-02-28T15:55:28.534Z,14.10
2019-02-28T15:57:57.614Z,10.83
2019-02-28T16:00:28.833Z,11.90
2019-02-28T16:02:58.358Z,12.37
2019-02-28T16:05:27.410Z,11.70
2019-02-28T16:07:56.874Z,12.53
2019-02-28T16:10:28.485Z,12.57
2019-02-28T16:12:59.020Z,12.83
2019-02-28T16:15:28.522Z,15.73
2019-02-28T16:17:58.574Z,15.00
2019-02-28T16:20:28.503Z,12.67
2019-02-28T16:22:58.426Z,12.57
2019-02-28T16:25:30.951Z,11.17
2019-02-28T16:27:59.923Z,10.87
2019-02-28T16:30:32.000Z,12.87
2019-02-28T16:32:59.937Z,15.63
2019-02-28T16:35:29.154Z,15.53
2019-02-28T16:37:58.129Z,18.63
2019-02-28T16:40:27.315Z,16.20
2019-02-28T16:42:56.640Z,20.27
2019-02-28T16:45:37.523Z,14.17
2019-02-28T16:48:07.119Z,15.83
2019-02-28T16:50:36.243Z,13.10
2019-02-28T16:53:06.070Z,15.10
2019-02-28T16:55:35.655Z,15.07
2019-02-28T16:58:04.741Z,13.77
2019-02-28T17:00:34.590Z,13.77
2019-02-28T17:03:05.920Z,12.00
2019-02-28T17:05:34.493Z,12.90
2019-02-28T17:08:03.562Z,13.23
2019-02-28T17:10:34.607Z,13.60
2019-02-28T17:13:35.467Z,9.43
2019-02-28T17:16:33.630Z,11.00
2019-02-28T17:19:05.091Z,15.77
2019-02-28T17:21:34.154Z,12.20
2019-02-28T17:24:03.324Z,11.80
2019-02-28T17:27:06.313Z,11.13
2019-02-28T17:29:53.765Z,12.57
2019-02-28T17:32:23.218Z,12.60
2019-02-28T17:34:52.254Z,8.13
2019-02-28T17:37:26.001Z,8.47
2019-02-28T17:39:52.040Z,11.73
2019-02-28T17:42:21.341Z,11.33
2019-02-28T17:45:02.758Z,9.77
2019-02-28T17:48:02.085Z,10.73
2019-02-28T17:50:51.903Z,9.93
2019-02-28T17:54:08.400Z,9.57
2019-02-28T17:57:36.702Z,9.13
2019-02-28T18:00:30.043Z,5.90
2019-02-28T18:03:55.911Z,6.93
2019-02-28T18:06:49.816Z,9.07
2019-02-28T18:10:06.470Z,7.93
2019-02-28T18:13:10.947Z,8.47
2019-02-28T18:16:12.551Z,7.90
2019-02-28T18:19:18.170Z,8.90
2019-02-28T18:22:30.086Z,7.83
2019-02-28T18:25:30.027Z,7.37
2019-02-28T18:28:41.963Z,8.60
2019-02-28T18:31:19.076Z,6.37
2019-02-28T18:33:50.064Z,9.00
2019-02-28T18:36:21.010Z,9.73
2019-02-28T18:38:50.066Z,8.30
2019-02-28T18:41:19.357Z,6.77
2019-02-28T18:43:48.406Z,6.83
2019-02-28T18:46:17.460Z,6.10
2019-02-28T18:48:46.947Z,7.53
2019-02-28T18:51:16.729Z,5.43
2019-02-28T18:53:45.954Z,5.37
2019-02-28T18:56:15.075Z,5.43
2019-02-28T18:58:44.175Z,7.70
2019-02-28T19:01:13.223Z,5.70
2019-02-28T19:03:42.597Z,5.30
2019-02-28T19:06:11.922Z,5.10
2019-02-28T19:08:40.891Z,6.50
2019-02-28T19:11:09.963Z,4.60
2019-02-28T19:13:38.969Z,5.23
2019-02-28T19:16:08.278Z,4.97
2019-02-28T19:18:38.035Z,6.03
2019-02-28T19:21:06.999Z,5.40
2019-02-28T19:23:35.972Z,7.30
2019-02-28T19:26:05.133Z,6.57
2019-02-28T19:28:34.212Z,4.60
2019-02-28T19:31:03.304Z,6.63
2019-02-28T19:33:32.362Z,5.47
2019-02-28T19:36:01.550Z,7.37
2019-02-28T19:38:30.742Z,5.27
2019-02-28T19:40:59.831Z,5.47
2019-02-28T19:43:28.822Z,4.80
2019-02-28T19:45:57.802Z,7.13
2019-02-28T19:48:27.568Z,5.73
2019-02-28T19:50:56.536Z,5.13
2019-02-28T19:53:25.586Z,5.97
2019-02-28T19:55:56.622Z,7.00
2019-02-28T19:58:25.359Z,6.20
2019-02-28T20:00:54.413Z,6.63
2019-02-28T20:03:23.978Z,4.97
2019-02-28T20:05:53.031Z,8.00
2019-02-28T20:08:22.074Z,4.27
2019-02-28T20:10:51.078Z,5.03
2019-02-28T20:13:20.128Z,4.67
2019-02-28T20:15:49.177Z,5.93
2019-02-28T20:18:19.164Z,11.00
2019-02-28T20:20:48.403Z,4.77
2019-02-28T20:23:17.366Z,6.87
2019-02-28T20:25:46.433Z,4.40
2019-02-28T20:28:15.416Z,6.07
2019-02-28T20:30:44.454Z,7.30
2019-02-28T20:33:13.518Z,5.07
2019-02-28T20:35:42.493Z,6.30
2019-02-28T20:38:11.686Z,5.07
2019-02-28T20:40:41.060Z,6.23
2019-02-28T20:43:10.310Z,4.83
2019-02-28T20:45:39.281Z,5.33
2019-02-28T20:48:08.597Z,4.33
2019-02-28T20:50:39.947Z,5.23
2019-02-28T20:53:08.951Z,6.03
2019-02-28T20:55:38.031Z,4.67
2019-02-28T20:58:07.087Z,6.07
2019-02-28T21:00:36.134Z,3.60
2019-02-28T21:03:05.619Z,5.37
2019-02-28T21:05:34.518Z,5.47
2019-02-28T21:08:03.487Z,9.53
2019-02-28T21:10:32.485Z,4.67
2019-02-28T21:13:01.522Z,9.00
2019-02-28T21:15:30.578Z,9.10
2019-02-28T21:17:59.880Z,7.03
2019-02-28T21:20:29.122Z,5.20
2019-02-28T21:22:59.195Z,4.30
2019-02-28T21:25:28.394Z,8.63
2019-02-28T21:27:57.455Z,6.53
2019-02-28T21:30:26.677Z,6.60
2019-02-28T21:32:55.738Z,5.37
2019-02-28T21:35:24.807Z,5.73
2019-02-28T21:37:53.861Z,6.03
2019-02-28T21:40:24.187Z,5.27
2019-02-28T21:42:53.249Z,5.37
2019-02-28T21:45:22.251Z,7.00
2019-02-28T21:47:51.486Z,5.87
2019-02-28T21:50:20.530Z,11.57
2019-02-28T21:52:49.514Z,5.40
2019-02-28T21:55:18.786Z,5.63
2019-02-28T21:57:47.833Z,7.43
2019-02-28T22:00:19.514Z,5.10
2019-02-28T22:02:48.806Z,9.90
2019-02-28T22:05:17.782Z,4.43
2019-02-28T22:07:46.853Z,4.70
2019-02-28T22:10:16.386Z,6.30
2019-02-28T22:12:45.446Z,4.00
2019-02-28T22:15:16.111Z,5.07
2019-02-28T22:17:45.847Z,3.63
2019-02-28T22:20:16.420Z,2.53
2019-02-28T22:22:45.449Z,3.70
2019-02-28T22:25:15.033Z,3.03
2019-02-28T22:27:44.067Z,3.53
2019-02-28T22:30:46.042Z,5.87
2019-02-28T22:33:23.395Z,5.90
2019-02-28T22:35:55.075Z,5.20
2019-02-28T22:38:24.118Z,4.87
2019-02-28T22:40:53.093Z,6.73
2019-02-28T22:43:22.186Z,4.27
2019-02-28T22:45:51.240Z,3.83
2019-02-28T22:48:20.289Z,4.03
2019-02-28T22:50:49.380Z,4.30
2019-02-28T22:53:18.436Z,4.40
2019-02-28T22:55:47.470Z,4.90
2019-02-28T22:58:16.550Z,4.30
2019-02-28T23:01:07.088Z,5.67
2019-02-28T23:03:38.442Z,5.57
2019-02-28T23:06:07.914Z,4.77
2019-02-28T23:08:36.951Z,8.97
2019-02-28T23:11:06.457Z,5.17
2019-02-28T23:13:35.494Z,7.43
2019-02-28T23:16:04.495Z,4.70
2019-02-28T23:18:33.855Z,5.90
2019-02-28T23:21:03.403Z,5.87
2019-02-28T23:23:32.449Z,6.87
2019-02-28T23:26:13.420Z,4.77
2019-02-28T23:29:16.138Z,10.33
2019-02-28T23:32:20.434Z,7.13
2019-02-28T23:34:52.159Z,4.73
2019-02-28T23:37:21.195Z,4.17
2019-02-28T23:39:50.651Z,4.20
2019-02-28T23:42:19.626Z,6.10
2019-02-28T23:44:48.600Z,7.57
2019-02-28T23:47:17.741Z,10.03
2019-02-28T23:49:46.894Z,7.30
2019-02-28T23:52:15.866Z,9.13
2019-02-28T23:54:44.922Z,5.77
2019-02-28T23:57:13.975Z,10.27
2019-02-28T23:59:43.052Z,7.43
